Chicago, Illinois
Traffic Map
Current Weather Conditions
Chicago, Illinois
Few Clouds
Few Clouds

Feels Like: 1°
Wind Chill: Ceiling: Unl
Heat Index: Visibility: 10mi
Dew Point: Wind: 12mph
Humidity: 73% Direction: 60° (ENE)
Pressure: 30.37in Gusts: 0mph
Raw Report DataKMDW 191151Z 06010KT 10SM FEW300 04/00 A3037 RMK AO2 SLP292 T00440000 10050 20033 51006 $
Traffic Incident Summary
Active as of:
Severity:
Category:
InformationThere was an issue retrieving the traffic information for this location. Please try a different location or try again shortly.
Advertisements
At Last! Intellicast now available for iPhone and Android